Bonduel, Wisconsin
Current Conditions -  °F | °C
As of 7:15 PM on Saturday 25 Oct 2014 (Local Time) from KEZS Reporting Station
Clear Clear  
Wind Chill: 57°   Ceiling: Unl
Heat Index: 57°   Visibility: 10mi
Dew Point: 25°   Wind: 6mph
Humidity: 29%   Direction: 270°W
Pressure: 29.88"   Gusts: NA
Location:  44.74°N, 88.44°W
Report Text: KEZS 260015Z AUTO 27005KT 10SM CLR 14/M04 A2988 RMK AO2 T01391038
Loading
Personal Weather Stations






























Interactive Weather Map
Tropical Storm Tracking
New forecast layout! Learn more

10-Day Weather Forecast

Advertisements
Track Severe Weather on mobile